WEATHER DATA

YESTERDAY
Time Temp. Dewp. Hum. Wind dir Wind speed Wind gust Bar. 1h Prec. 24h Prec.
00:17 21.4 13.3 60 250 1.4 5 1016.9 0.0000 0.0000
00:28 21.4 13.3 60 301 1.1 2.8 1017 0.0000 0.0000
00:37 21.4 13.3 60 260 1.4 2.5 1016.8 0.0000 0.0000
00:47 21.3 13 59 259 1.4 4.2 1016.4 0.0000 0.0000
00:58 21.4 12.8 58 264 1.9 5.6 1016.1 0.0000 0.0000
01:08 21.3 12.7 58 234 1.9 5 1015.9 0.0000 0.0000
01:17 21.3 12.4 57 260 1.9 6.4 1015.7 0.0000 0.0000
01:28 21.4 12.3 56 225 1.7 6.1 1015.6 0.0000 0.0000
01:42 21.2 12.1 56 245 1.7 6.9 1015.6 0.0000 0.0000
01:52 21.2 12.4 57 252 1.9 5.3 1015.5 0.0000 0.0000
02:02 21.1 12.3 57 247 1.9 4.7 1015.5 0.0000 0.0000
02:12 21.1 12.5 58 236 1.7 3.6 1015.6 0.0000 0.0000
02:22 21 12.4 58 223 1.7 4.4 1015.5 0.0000 0.0000
02:32 21 12.4 58 247 1.7 5 1015.6 0.0000 0.0000
02:43 21 12.4 58 1.7 5.6 1015.5 0.0000 0.0000
02:52 21 12.4 58 239 1.9 4.7 1015.2 0.0000 0.0000
03:02 21 12.4 58 232 2.2 5 1015.4 0.0000 0.0000
03:13 20.9 12.3 58 229 1.7 5.6 1015.5 0.0000 0.0000
03:23 21 12.2 57 1.9 5.3 1015.7 0.0000 0.0000
03:32 21 12.2 57 246 2.2 5.6 1015.2 0.0000 0.0000
03:43 21 11.9 56 221 2.2 6.4 1015.4 0.0000 0.0000
03:53 20.9 11.8 56 220 1.9 6.1 1015.5 0.0000 0.0000
04:03 20.8 12 57 192 1.7 3.9 1015.5 0.0000 0.0000
04:13 20.6 11.8 57 197 1.9 8.9 1015.4 0.0000 0.0000
04:24 20.6 11.8 57 207 2.2 5.3 1015.4 0.0000 0.0000
04:33 20.5 11.7 57 220 2.2 5.3 1015.5 0.0000 0.0000
04:43 20.5 11.7 57 226 2.2 5 1015.6 0.0000 0.0000
04:53 20.4 11.6 57 226 2.2 6.7 1015.7 0.1010 0.1000
05:04 20.4 11.6 57 238 1.9 3.9 1016 0.1010 0.1000
05:13 20.3 11.8 58 238 1.9 5.3 1015.8 0.1010 0.1000
05:26 20.2 11.7 58 225 1.7 6.9 1016.3 0.1010 0.1000
05:36 20.1 11.8 59 239 1.9 4.7 1016.4 0.1010 0.1000
05:46 20.1 11.8 59 249 2.2 6.7 1016.4 0.1010 0.1000
05:56 20.1 11.6 58 221 2.2 5.3 1016.7 0.0000 0.1000
06:07 20.2 11.4 57 2.5 8.9 1016.5 0.0000 0.1000
06:17 20.3 11.5 57 231 1.9 6.4 1016.6 0.0000 0.1000
06:27 20.3 11.5 57 257 2.8 6.9 1017 0.0000 0.1000
06:38 20.4 11.1 55 249 2.2 5 1016.7 0.0000 0.1000
06:47 20.5 10.3 52 237 2.2 5.3 1016.8 0.0000 0.1000
06:57 20.7 10.5 52 253 1.9 5.3 1017.1 0.0000 0.1000
07:08 20.8 10.3 51 255 1.9 4.4 1017.4 0.0000 0.1000
07:18 20.9 10.4 51 259 2.5 6.9 1017.1 0.0000 0.1000
07:28 21 10.2 50 211 1.9 5 1017.3 0.0000 0.1000
07:37 21.1 10.3 50 251 1.9 4.7 1017.2 0.0000 0.1000
07:48 21.2 10.4 50 231 1.9 5.3 1017.6 0.0000 0.1000
07:58 21.5 10.7 50 250 1.7 3.9 1017.5 0.0000 0.1000
08:08 21.7 10.2 48 215 2.2 4.7 1017.8 0.0000 0.1000
08:18 22 10.5 48 232 1.9 5.6 1017.8 0.0000 0.1000
08:28 22.2 10.7 48 252 1.9 5.6 1017.9 0.0000 0.1000
08:38 22.5 10.6 47 240 1.9 5 1018.1 0.0000 0.1000
08:48 22.8 10.6 46 235 1.4 4.2 1018 0.0000 0.1000
08:58 22.9 10.3 45 265 2.2 5.3 1017.6 0.0000 0.1000
09:08 22.9 10 44 204 2.2 6.4 1017.7 0.0000 0.1000
09:18 22.9 10 44 253 2.5 6.1 1018 0.0000 0.1000
09:29 22.9 10.3 45 2.5 8.1 1018 0.0000 0.1000
09:39 22.9 10.3 45 261 2.5 7.2 1018.2 0.0000 0.1000
09:48 23 10.4 45 191 2.5 8.1 1018.3 0.0000 0.1000
09:58 23.2 10.3 44 2.2 5.8 1018.4 0.0000 0.1000
10:09 23.4 10.1 43 146 2.2 5.8 1018.2 0.0000 0.1000
10:16 23.4 10.1 43 152 2.8 9.7 1018.2 0.0000 0.1000
10:25 23.3 10.7 45 203 2.5 5.3 1018.1 0.0000 0.1000
10:35 23.7 9.3 40 243 2.2 5.6 1018.3 0.0000 0.1000
10:45 24 8.8 38 218 2.5 6.4 1018.3 0.0000 0.1000
10:56 24.3 9.1 38 211 1.7 5.6 1018.3 0.0000 0.1000
11:06 24.9 8.8 36 188 1.7 5.8 1018.5 0.0000 0.1000
11:15 25.1 9.4 37 173 1.9 4.4 1018.4 0.0000 0.1000
11:26 25.3 9.6 37 186 1.7 4.4 1018.7 0.0000 0.1000
11:36 25.5 9.8 37 239 1.9 5.6 1018.8 0.0000 0.1000
11:46 25.8 10 37 164 1.7 4.7 1018.9 0.0000 0.1000
11:56 26 10.2 37 184 1.4 5.3 1018.7 0.0000 0.1000
12:06 26.2 10 36 206 1.7 5.3 1019 0.0000 0.1000
12:16 26.5 9.8 35 217 1.4 5.3 1019.1 0.0000 0.1000
12:26 26.7 10 35 225 1.4 4.2 1019 0.0000 0.1000
12:36 26.9 9.7 34 213 1.4 3.3 1019 0.0000 0.1000
12:46 27 10.2 35 225 1.7 5 1019.1 0.0000 0.1000
12:56 27.3 10.5 35 178 1.1 3.6 1019.1 0.0000 0.1000
13:06 27.4 9.3 32 164 1.7 4.7 1019.2 0.0000 0.1000
13:17 27.2 10 34 242 1.7 3.3 1019.5 0.0000 0.1000
13:26 27.3 10.1 34 239 1.9 4.7 1019.4 0.0000 0.1000
13:41 27.3 10.5 35 270 1.9 8.9 1019.5 0.0000 0.1000
13:51 27.3 10.9 36 257 1.7 4.2 1019.4 0.0000 0.1000
14:01 27.7 11.3 36 238 1.1 2.2 1019.5 0.0000 0.1000
14:11 27.5 10.7 35 100 1.4 3.3 1019.5 0.0000 0.1000
14:21 27.7 10.4 34 235 1.1 3.3 1019.4 0.0000 0.1000
14:31 27.8 10.5 34 216 1.4 3.6 1019.4 0.0000 0.1000
14:41 28.1 10.8 34 198 1.4 3.3 1019.2 0.0000 0.1000
14:52 27.8 11 35 222 1.1 4.7 1019.5 0.0000 0.1000
15:02 28.1 10.3 33 161 1.4 3.6 1019.5 0.0000 0.1000
15:11 27.9 10.6 34 242 1.4 3.6 1019.5 0.0000 0.1000
15:21 27.9 10.6 34 219 1.4 3.6 1019.4 0.0000 0.1000
15:32 27.6 10.3 34 249 1.7 4.7 1019.4 0.0000 0.1000
15:42 27.6 10.3 34 231 1.7 3.6 1019.4 0.0000 0.1000
15:51 27.5 10.7 35 241 1.1 2.8 1019.3 0.0000 0.1000
16:02 27.7 10 33 184 1.1 3.3 1019.3 0.0000 0.1000
16:12 27.5 10.3 34 205 1.4 3.6 1019.3 0.0000 0.1000
16:22 27.5 10.3 34 244 1.4 4.2 1019.3 0.0000 0.1000
16:31 27.4 10.2 34 241 1.4 4.2 1019.5 0.0000 0.1000
16:42 27.3 9.6 33 250 1.4 4.4 1019.1 0.0000 0.1000
16:52 27 9.8 34 131 1.7 3.3 1019.3 0.0000 0.1000
17:02 27 9.8 34 222 1.4 3.3 1019.4 0.0000 0.1000
17:13 26.9 9.7 34 172 1.1 3.3 1019.5 0.0000 0.1000
17:22 26.9 10.2 35 212 1.1 2.8 1019.6 0.0000 0.1000
17:32 26.8 9.6 34 191 1.4 4.2 1019.5 0.0000 0.1000
17:42 26.4 9.7 35 232 1.4 3.3 1019.5 0.0000 0.1000
17:53 26.5 9.8 35 235 1.1 2.8 1019.6 0.0000 0.1000
18:02 26.4 9.3 34 247 1.7 5.6 1019.5 0.0000 0.1000
18:12 26 8.9 34 228 1.7 4.4 1019.2 0.0000 0.1000
18:23 25.7 9.1 35 225 1.4 3.6 1019.3 0.0000 0.1000
18:33 25.9 9.3 35 232 1.1 5.3 1019.4 0.0000 0.1000
18:43 25.5 8.9 35 245 1.7 5 1019.1 0.0000 0.1000
18:51 25.2 9.1 36 1.7 7.5 1019.1 0.0000 0.1000
19:01 24.9 8.8 36 263 1.4 3.9 1019.1 0.0000 0.1000
19:11 24.8 8.7 36 257 1.7 3.3 1019.2 0.0000 0.1000
19:22 24.6 8.6 36 256 1.4 4.2 1019.3 0.0000 0.1000
19:31 24.5 8.9 37 259 1.4 2.8 1019.1 0.0000 0.1000
19:41 24.1 8.1 36 231 1.7 5 1019.1 0.0000 0.1000
19:51 23.7 8.6 38 260 1.1 4.4 1019.3 0.0000 0.1000
20:02 23.3 8.6 39 252 1.4 3.9 1019.1 0.0000 0.1000
20:12 23 8.3 39 252 1.1 2.8 1019.1 0.0000 0.1000
20:21 22.8 8.1 39 259 1.4 3.3 1019.1 0.0000 0.1000
20:32 22.6 8 39 258 1.1 5 1018.9 0.0000 0.1000
20:42 22.4 7.8 39 241 1.1 2.8 1019.1 0.0000 0.1000
20:52 22.3 7.7 39 260 1.7 5 1019.1 0.0000 0.1000
21:01 22.2 8 40 255 1.7 5.6 1019.2 0.0000 0.1000
21:12 22.1 7.5 39 255 1.7 4.2 1019.2 0.0000 0.1000
21:22 22 7.8 40 251 1.4 3.6 1019.6 0.0000 0.1000
21:32 21.9 7.7 40 261 1.4 3.3 1019.8 0.0000 0.1000
21:42 21.9 7.7 40 259 1.4 3.1 1019.4 0.0000 0.1000
21:52 21.8 7.6 40 270 1.4 6.1 1019.7 0.0000 0.1000
22:02 21.8 7.6 40 270 1.4 3.1 1019.9 0.0000 0.1000
22:12 21.7 7.2 39 250 1.4 3.6 1020 0.0000 0.1000
22:23 21.7 7.5 40 254 1.7 4.2 1020 0.0000 0.1000
22:32 21.7 7.5 40 251 1.4 3.9 1020.3 0.0000 0.1000
22:42 21.6 7.4 40 270 1.1 3.1 1020.3 0.0000 0.1000
22:53 21.6 7.4 40 256 1.4 5 1020.2 0.0000 0.1000
23:03 21.5 7.7 41 270 0.8 2.2 1020.4 0.0000 0.1000
23:12 21.5 7.7 41 270 0.8 2.8 1020.2 0.0000 0.1000
23:16 21.5 7.3 40 270 1.4 7.8 1019.9 0.0000 0.1000
23:26 21.4 7.6 41 270 1.1 2.8 1020.3 0.0000 0.1000
23:35 21.4 7.3 40 250 1.7 4.7 1020 0.0000 0.1000
23:46 21.4 7.3 40 256 1.4 3.9 1020 0.0000 0.1000
23:56 21.3 7.2 40 270 1.1 2.2 1020.1 0.0000

DAY STATISTIC

2020-07-12
TEMPERATURE
AVERAGE
23.5
HIGH
28.1
14:41
LOW
20.1
05:36
PRESSURE
AVERAGE
1018.2
HIGH
1020.4
23:03
LOW
1015.2
02:52
DEWPOINT
AVERAGE
10.1
HIGH
13.3
00:17
LOW
7.2
22:12
HUMIDITY
AVERAGE
44
HIGH
60
00:17
LOW
32
13:06
WIND SPEED
AVERAGE
1.7
HIGH
2.8
06:27
WIND GUST
AVERAGE
4.8
HIGH
9.7
10:16
WIND DIRECTION
PREVAILING
SW
44.4%
N
0.0
NE
0.0
E
0.7
SE
2.1
S
12.0
SW
44.4
W
35.9
NW
0.7
PRECIPITATION
RAIN HOUR
0.1
RAIN DAY
0.1
TEMPERATURE (°C)
LOW
20.1
HIGH
28.1
AVERAGE
23.5
PRESSURE (hpa)
LOW
1015.2
HIGH
1020.4
AVERAGE
1018.2
DEVICE